createdAt,value
2022-08-02T00:00:41.990Z,1013.32
2022-08-02T00:01:41.383Z,1013.28
2022-08-02T00:02:41.593Z,1013.32
2022-08-02T00:03:41.910Z,1013.33
2022-08-02T00:04:43.092Z,1013.32
2022-08-02T00:05:42.494Z,1013.34
2022-08-02T00:06:43.815Z,1013.34
2022-08-02T00:07:43.144Z,1013.42
2022-08-02T00:08:43.459Z,1013.32
2022-08-02T00:09:43.885Z,1013.41
2022-08-02T00:10:43.978Z,1013.40
2022-08-02T00:11:44.296Z,1013.39
2022-08-02T00:12:44.625Z,1013.35
2022-08-02T00:13:44.967Z,1013.32
2022-08-02T00:14:45.288Z,1013.30
2022-08-02T00:15:45.660Z,1013.29
2022-08-02T00:16:46.025Z,1013.33
2022-08-02T00:17:46.422Z,1013.32
2022-08-02T00:18:47.421Z,1013.33
2022-08-02T00:19:46.819Z,1013.30
2022-08-02T00:20:47.229Z,1013.28
2022-08-02T00:21:47.452Z,1013.23
2022-08-02T00:22:47.778Z,1013.32
2022-08-02T00:24:28.152Z,1013.22
2022-08-02T00:24:49.450Z,1013.27
2022-08-02T00:25:55.203Z,1013.22
2022-08-02T00:26:50.052Z,1013.28
2022-08-02T00:27:49.344Z,1013.27
2022-08-02T00:28:49.703Z,1013.25
2022-08-02T00:29:53.006Z,1013.24
2022-08-02T00:30:50.252Z,1013.26
2022-08-02T00:31:50.552Z,1013.25
2022-08-02T00:32:50.864Z,1013.21
2022-08-02T00:34:26.991Z,1013.21
2022-08-02T00:34:52.556Z,1013.30
2022-08-02T00:35:51.852Z,1013.23
2022-08-02T00:36:52.050Z,1013.30
2022-08-02T00:37:52.395Z,1013.28
2022-08-02T00:38:52.714Z,1013.27
2022-08-02T00:39:53.056Z,1013.25
2022-08-02T00:40:58.001Z,1013.19
2022-08-02T00:41:53.707Z,1013.23
2022-08-02T00:42:54.048Z,1013.17
2022-08-02T00:43:54.389Z,1013.24
2022-08-02T00:44:55.588Z,1013.24
2022-08-02T00:46:02.297Z,1013.26
2022-08-02T00:46:56.311Z,1013.24
2022-08-02T00:47:55.577Z,1013.20
2022-08-02T00:48:55.942Z,1013.23
2022-08-02T00:49:56.220Z,1013.26
2022-08-02T00:50:56.428Z,1013.26
2022-08-02T00:51:56.768Z,1013.28
2022-08-02T00:52:57.090Z,1013.28
2022-08-02T00:53:57.460Z,1013.22
2022-08-02T00:54:57.672Z,1013.29
2022-08-02T00:55:58.402Z,1013.24
2022-08-02T00:56:58.242Z,1013.22
2022-08-02T00:57:58.742Z,1013.21
2022-08-02T00:58:58.801Z,1013.23
2022-08-02T00:59:59.147Z,1013.29
2022-08-02T01:00:59.536Z,1013.31
2022-08-02T01:01:59.797Z,1013.28
2022-08-02T01:03:00.004Z,1013.28
2022-08-02T01:04:00.343Z,1013.31
2022-08-02T01:05:00.736Z,1013.29
2022-08-02T01:06:17.435Z,1013.29
2022-08-02T01:07:02.273Z,1013.26
2022-08-02T01:08:01.557Z,1013.28
2022-08-02T01:09:01.895Z,1013.30
2022-08-02T01:10:02.142Z,1013.34
2022-08-02T01:11:02.527Z,1013.39
2022-08-02T01:12:02.978Z,1013.43
2022-08-02T01:13:03.067Z,1013.41
2022-08-02T01:14:03.278Z,1013.43
2022-08-02T01:15:03.644Z,1013.42
2022-08-02T01:16:03.852Z,1013.42
2022-08-02T01:17:04.184Z,1013.45
2022-08-02T01:18:04.521Z,1013.46
2022-08-02T01:19:04.868Z,1013.39
2022-08-02T01:20:06.304Z,1013.40
2022-08-02T01:21:05.529Z,1013.40
2022-08-02T01:22:05.748Z,1013.43
2022-08-02T01:23:06.087Z,1013.48
2022-08-02T01:24:06.416Z,1013.45
2022-08-02T01:25:06.845Z,1013.42
2022-08-02T01:26:07.090Z,1013.47
2022-08-02T01:27:07.293Z,1013.43
2022-08-02T01:28:07.648Z,1013.48
2022-08-02T01:29:07.871Z,1013.50
2022-08-02T01:30:08.209Z,1013.46
2022-08-02T01:31:08.561Z,1013.47
2022-08-02T01:32:09.144Z,1013.50
2022-08-02T01:33:09.146Z,1013.48
2022-08-02T01:34:09.345Z,1013.49
2022-08-02T01:35:09.665Z,1013.45
2022-08-02T01:36:10.036Z,1013.42
2022-08-02T01:37:10.238Z,1013.43
2022-08-02T01:38:10.591Z,1013.44
2022-08-02T01:39:10.916Z,1013.54
2022-08-02T01:40:11.238Z,1013.61
2022-08-02T01:41:11.744Z,1013.62
2022-08-02T01:42:12.305Z,1013.58
2022-08-02T01:43:12.280Z,1013.64
2022-08-02T01:44:12.488Z,1013.61
2022-08-02T01:45:12.715Z,1013.62
2022-08-02T01:46:13.071Z,1013.56
2022-08-02T01:47:13.332Z,1013.55
2022-08-02T01:48:13.543Z,1013.56
2022-08-02T01:49:13.923Z,1013.56
2022-08-02T01:50:15.150Z,1013.60
2022-08-02T01:51:14.464Z,1013.60
2022-08-02T01:52:14.698Z,1013.55
2022-08-02T01:53:14.893Z,1013.56
2022-08-02T01:54:15.232Z,1013.56
2022-08-02T01:55:18.798Z,1013.56
2022-08-02T01:56:15.825Z,1013.57
2022-08-02T01:57:16.161Z,1013.56
2022-08-02T01:58:16.503Z,1013.59
2022-08-02T01:59:16.855Z,1013.59
2022-08-02T02:00:17.236Z,1013.62
2022-08-02T02:01:18.499Z,1013.61
2022-08-02T02:02:17.812Z,1013.62
2022-08-02T02:03:18.037Z,1013.63
2022-08-02T02:04:18.362Z,1013.58
2022-08-02T02:05:18.694Z,1013.62
2022-08-02T02:06:19.047Z,1013.60
2022-08-02T02:07:19.359Z,1013.63
2022-08-02T02:08:27.368Z,1013.58
2022-08-02T02:09:21.008Z,1013.63
2022-08-02T02:10:20.318Z,1013.63
2022-08-02T02:12:09.429Z,1013.65
2022-08-02T02:12:22.070Z,1013.65
2022-08-02T02:13:21.050Z,1013.66
2022-08-02T02:14:22.359Z,1013.60
2022-08-02T02:15:21.733Z,1013.68
2022-08-02T02:16:21.949Z,1013.68
2022-08-02T02:18:10.746Z,1013.71
2022-08-02T02:18:23.571Z,1013.72
2022-08-02T02:19:22.912Z,1013.67
2022-08-02T02:20:23.084Z,1013.66
2022-08-02T02:21:23.406Z,1013.68
2022-08-02T02:22:23.732Z,1013.68
2022-08-02T02:23:25.803Z,1013.72
2022-08-02T02:24:24.324Z,1013.71
2022-08-02T02:25:29.344Z,1013.73
2022-08-02T02:26:31.057Z,1013.72
2022-08-02T02:27:26.214Z,1013.72
2022-08-02T02:28:25.496Z,1013.71
2022-08-02T02:29:25.695Z,1013.70
2022-08-02T02:30:26.058Z,1013.77
2022-08-02T02:31:26.282Z,1013.77
2022-08-02T02:32:26.622Z,1013.78
2022-08-02T02:33:29.515Z,1013.81
2022-08-02T02:34:27.177Z,1013.77
2022-08-02T02:35:27.507Z,1013.68
2022-08-02T02:36:27.847Z,1013.72
2022-08-02T02:37:28.171Z,1013.73
2022-08-02T02:38:28.507Z,1013.66
2022-08-02T02:39:28.829Z,1013.72
2022-08-02T02:40:29.148Z,1013.74
2022-08-02T02:41:29.511Z,1013.67
2022-08-02T02:42:29.840Z,1013.77
2022-08-02T02:43:30.010Z,1013.77
2022-08-02T02:44:30.361Z,1013.80
2022-08-02T02:45:31.536Z,1013.74
2022-08-02T02:46:30.914Z,1013.79
2022-08-02T02:47:41.157Z,1013.79
2022-08-02T02:49:47.894Z,1013.71
2022-08-02T02:50:48.101Z,1013.71
2022-08-02T02:51:48.433Z,1013.76
2022-08-02T02:52:48.761Z,1013.72
2022-08-02T02:54:30.113Z,1013.79
2022-08-02T02:54:50.443Z,1013.74
2022-08-02T02:56:02.557Z,1013.74
2022-08-02T02:56:51.002Z,1013.74
2022-08-02T02:57:50.304Z,1013.77
2022-08-02T02:58:50.606Z,1013.77
2022-08-02T02:59:50.844Z,1013.70
2022-08-02T03:00:51.147Z,1013.75
2022-08-02T03:01:56.981Z,1013.71
2022-08-02T03:02:52.655Z,1013.77
2022-08-02T03:03:51.966Z,1013.74
2022-08-02T03:04:56.978Z,1013.77
2022-08-02T03:05:53.625Z,1013.76
2022-08-02T03:06:52.906Z,1013.71
2022-08-02T03:07:53.281Z,1013.75
2022-08-02T03:08:53.487Z,1013.75
2022-08-02T03:09:54.915Z,1013.68
2022-08-02T03:10:54.028Z,1013.77
2022-08-02T03:11:54.380Z,1013.78
2022-08-02T03:12:54.610Z,1013.82
2022-08-02T03:13:54.869Z,1013.76
2022-08-02T03:14:55.079Z,1013.80
2022-08-02T03:15:55.339Z,1013.82
2022-08-02T03:16:55.619Z,1013.76
2022-08-02T03:17:55.961Z,1013.76
2022-08-02T03:18:56.248Z,1013.78
2022-08-02T03:19:56.545Z,1013.82
2022-08-02T03:20:56.828Z,1013.80
2022-08-02T03:21:57.504Z,1013.82
2022-08-02T03:22:58.350Z,1013.81
2022-08-02T03:23:57.713Z,1013.82
2022-08-02T03:24:57.923Z,1013.84
2022-08-02T03:25:58.242Z,1013.87
2022-08-02T03:26:58.651Z,1013.85
2022-08-02T03:27:58.868Z,1013.83
2022-08-02T03:28:59.182Z,1013.86
2022-08-02T03:29:59.474Z,1013.84
2022-08-02T03:30:59.752Z,1013.85
2022-08-02T03:32:00.015Z,1013.87
2022-08-02T03:33:00.445Z,1013.81
2022-08-02T03:34:00.627Z,1013.84
2022-08-02T03:35:00.969Z,1013.82
2022-08-02T03:36:01.174Z,1013.83
2022-08-02T03:37:01.417Z,1013.89
2022-08-02T03:38:01.647Z,1013.89
2022-08-02T03:39:01.966Z,1013.90
2022-08-02T03:40:02.339Z,1013.89
2022-08-02T03:41:02.583Z,1013.89
2022-08-02T03:42:02.902Z,1013.90
2022-08-02T03:43:03.211Z,1013.86
2022-08-02T03:44:03.562Z,1013.86
2022-08-02T03:45:08.094Z,1013.80
2022-08-02T03:46:05.141Z,1013.83
2022-08-02T03:47:04.433Z,1013.80
2022-08-02T03:48:30.431Z,1013.89
2022-08-02T03:49:06.015Z,1013.84
2022-08-02T03:50:05.266Z,1013.83
2022-08-02T03:51:05.602Z,1013.83
2022-08-02T03:52:05.970Z,1013.86
2022-08-02T03:53:06.204Z,1013.92
2022-08-02T03:54:07.528Z,1013.86
2022-08-02T03:55:06.802Z,1013.84
2022-08-02T03:56:07.153Z,1013.86
2022-08-02T03:57:07.396Z,1013.85
2022-08-02T03:58:07.636Z,1013.86
2022-08-02T03:59:07.873Z,1013.90
2022-08-02T04:00:08.105Z,1013.84
2022-08-02T04:01:08.432Z,1013.88
2022-08-02T04:02:08.886Z,1013.87
2022-08-02T04:03:08.956Z,1013.93
2022-08-02T04:04:09.215Z,1013.90
2022-08-02T04:05:09.446Z,1013.94
2022-08-02T04:06:09.707Z,1013.96
2022-08-02T04:07:09.959Z,1014.01
2022-08-02T04:08:35.209Z,1014.01
2022-08-02T04:09:11.534Z,1013.98
2022-08-02T04:10:10.822Z,1014.00
2022-08-02T04:11:11.064Z,1014.06
2022-08-02T04:12:11.506Z,1014.06
2022-08-02T04:13:11.519Z,1014.05
2022-08-02T04:14:11.831Z,1014.09
2022-08-02T04:15:12.062Z,1014.11
2022-08-02T04:16:12.300Z,1014.11
2022-08-02T04:17:12.600Z,1014.09
2022-08-02T04:18:12.852Z,1014.15
2022-08-02T04:19:15.088Z,1014.12
2022-08-02T04:20:13.352Z,1014.14
2022-08-02T04:21:13.583Z,1014.20
2022-08-02T04:22:14.191Z,1014.19
2022-08-02T04:23:14.427Z,1014.19
2022-08-02T04:24:14.362Z,1014.18
2022-08-02T04:25:17.247Z,1014.20
2022-08-02T04:26:14.842Z,1014.18
2022-08-02T04:27:50.868Z,1014.15
2022-08-02T04:28:18.137Z,1014.22
2022-08-02T04:29:15.785Z,1014.28
2022-08-02T04:30:16.046Z,1014.25
2022-08-02T04:31:16.303Z,1014.12
2022-08-02T04:32:16.557Z,1014.13
2022-08-02T04:33:16.814Z,1014.14
2022-08-02T04:34:17.037Z,1014.12
2022-08-02T04:35:19.541Z,1014.11
2022-08-02T04:36:31.204Z,1014.18
2022-08-02T04:37:18.837Z,1014.15
2022-08-02T04:38:18.129Z,1014.14
2022-08-02T04:39:18.387Z,1014.20
2022-08-02T04:40:18.628Z,1014.13
2022-08-02T04:41:18.878Z,1014.12
2022-08-02T04:42:19.129Z,1014.11
2022-08-02T04:43:19.360Z,1014.16
2022-08-02T04:44:19.601Z,1014.12
2022-08-02T04:45:19.884Z,1014.16
2022-08-02T04:46:20.121Z,1014.17
2022-08-02T04:47:54.095Z,1014.16
2022-08-02T04:48:21.753Z,1014.19
2022-08-02T04:49:20.981Z,1014.19
2022-08-02T04:50:21.233Z,1014.16
2022-08-02T04:51:21.463Z,1014.18
2022-08-02T04:52:22.842Z,1014.18
2022-08-02T04:53:22.125Z,1014.22
2022-08-02T04:54:22.398Z,1014.22
2022-08-02T04:55:22.636Z,1014.22
2022-08-02T04:56:23.365Z,1014.17
2022-08-02T04:57:23.166Z,1014.19
2022-08-02T04:58:40.061Z,1014.23
2022-08-02T04:59:24.744Z,1014.27
2022-08-02T05:00:24.067Z,1014.24
2022-08-02T05:01:24.287Z,1014.28
2022-08-02T05:02:24.545Z,1014.28
2022-08-02T05:03:24.787Z,1014.22
2022-08-02T05:04:25.027Z,1014.24
2022-08-02T05:05:25.258Z,1014.25
2022-08-02T05:06:25.499Z,1014.20
2022-08-02T05:07:25.776Z,1014.18
2022-08-02T05:08:26.030Z,1014.17
2022-08-02T05:09:26.287Z,1014.23
2022-08-02T05:10:26.550Z,1014.21
2022-08-02T05:11:30.046Z,1014.16
2022-08-02T05:12:28.161Z,1014.16
2022-08-02T05:13:27.461Z,1014.20
2022-08-02T05:14:27.722Z,1014.20
2022-08-02T05:15:31.618Z,1014.20
2022-08-02T05:16:31.594Z,1014.24
2022-08-02T05:17:28.654Z,1014.13
2022-08-02T05:18:28.902Z,1014.19
2022-08-02T05:19:29.134Z,1014.19
2022-08-02T05:20:29.384Z,1014.15
2022-08-02T05:21:29.619Z,1014.18
2022-08-02T05:22:29.872Z,1014.20
2022-08-02T05:23:30.113Z,1014.26
2022-08-02T05:24:30.369Z,1014.26
2022-08-02T05:25:30.627Z,1014.21
2022-08-02T05:26:30.884Z,1014.24
2022-08-02T05:27:31.175Z,1014.22
2022-08-02T05:28:31.427Z,1014.20
2022-08-02T05:29:31.709Z,1014.12
2022-08-02T05:30:31.967Z,1014.21
2022-08-02T05:31:32.251Z,1014.16
2022-08-02T05:32:32.480Z,1014.16
2022-08-02T05:33:32.742Z,1014.15
2022-08-02T05:34:33.051Z,1014.17
2022-08-02T05:35:33.305Z,1014.19
2022-08-02T05:36:33.602Z,1014.17
2022-08-02T05:37:35.263Z,1014.16
2022-08-02T05:38:37.332Z,1014.15
2022-08-02T05:39:34.381Z,1014.17
2022-08-02T05:40:34.647Z,1014.11
2022-08-02T05:41:34.897Z,1014.11
2022-08-02T05:42:35.165Z,1014.21
2022-08-02T05:43:35.471Z,1014.18
2022-08-02T05:44:35.763Z,1014.17
2022-08-02T05:45:36.022Z,1014.24
2022-08-02T05:46:36.367Z,1014.25
2022-08-02T05:47:36.546Z,1014.27
2022-08-02T05:48:36.857Z,1014.27
2022-08-02T05:49:37.246Z,1014.29
2022-08-02T05:50:37.380Z,1014.29
2022-08-02T05:51:37.678Z,1014.34
2022-08-02T05:52:37.973Z,1014.32
2022-08-02T05:53:38.279Z,1014.37
2022-08-02T05:54:39.620Z,1014.32
2022-08-02T05:55:38.950Z,1014.34
2022-08-02T05:56:39.102Z,1014.31
2022-08-02T05:57:43.448Z,1014.29
2022-08-02T05:58:39.700Z,1014.33
2022-08-02T05:59:39.962Z,1014.36
2022-08-02T06:00:40.284Z,1014.36
2022-08-02T06:01:40.725Z,1014.40
2022-08-02T06:02:40.927Z,1014.38
2022-08-02T06:03:41.229Z,1014.35
2022-08-02T06:04:41.533Z,1014.35
2022-08-02T06:05:41.844Z,1014.40
2022-08-02T06:06:42.126Z,1014.38
2022-08-02T06:07:42.416Z,1014.39
2022-08-02T06:08:47.411Z,1014.35
2022-08-02T06:09:44.098Z,1014.36
2022-08-02T06:10:43.397Z,1014.35
2022-08-02T06:12:02.788Z,1014.38
2022-08-02T06:12:44.886Z,1014.36
2022-08-02T06:13:44.189Z,1014.37
2022-08-02T06:14:44.452Z,1014.40
2022-08-02T06:15:52.660Z,1014.37
2022-08-02T06:16:45.978Z,1014.27
2022-08-02T06:17:45.603Z,1014.26
2022-08-02T06:18:45.346Z,1014.24
2022-08-02T06:19:51.775Z,1014.27
2022-08-02T06:20:46.951Z,1014.26
2022-08-02T06:22:32.032Z,1014.31
2022-08-02T06:22:47.676Z,1014.32
2022-08-02T06:23:57.672Z,1014.34
2022-08-02T06:24:48.017Z,1014.27
2022-08-02T06:25:50.681Z,1014.32
2022-08-02T06:26:47.506Z,1014.40
2022-08-02T06:27:47.870Z,1014.36
2022-08-02T06:28:48.138Z,1014.32
2022-08-02T06:29:48.411Z,1014.37
2022-08-02T06:30:48.720Z,1014.34
2022-08-02T06:31:49.033Z,1014.35
2022-08-02T06:32:49.789Z,1014.37
2022-08-02T06:33:49.609Z,1014.36
2022-08-02T06:34:49.936Z,1014.38
2022-08-02T06:35:50.252Z,1014.39
2022-08-02T06:36:50.553Z,1014.36
2022-08-02T06:37:53.542Z,1014.40
2022-08-02T06:38:51.263Z,1014.37
2022-08-02T06:39:51.532Z,1014.34
2022-08-02T06:40:51.673Z,1014.35
2022-08-02T06:41:51.949Z,1014.39
2022-08-02T06:42:52.277Z,1014.39
2022-08-02T06:43:52.576Z,1014.39
2022-08-02T06:44:57.014Z,1014.45
2022-08-02T06:45:54.127Z,1014.44
2022-08-02T06:47:09.881Z,1014.42
2022-08-02T06:47:54.875Z,1014.46
2022-08-02T06:48:54.098Z,1014.38
2022-08-02T06:49:55.048Z,1014.37
2022-08-02T06:50:54.628Z,1014.40
2022-08-02T06:51:54.952Z,1014.39
2022-08-02T06:52:55.303Z,1014.34
2022-08-02T06:53:55.594Z,1014.29
2022-08-02T06:54:55.871Z,1014.29
2022-08-02T06:55:56.134Z,1014.30
2022-08-02T06:56:56.393Z,1014.27
2022-08-02T06:57:56.715Z,1014.32
2022-08-02T06:58:56.994Z,1014.28
2022-08-02T06:59:57.325Z,1014.27
2022-08-02T07:00:57.578Z,1014.30
2022-08-02T07:01:58.083Z,1014.25
2022-08-02T07:02:58.095Z,1014.29
2022-08-02T07:03:58.356Z,1014.25
2022-08-02T07:04:58.634Z,1014.30
2022-08-02T07:05:58.863Z,1014.25
2022-08-02T07:06:59.142Z,1014.29
2022-08-02T07:07:59.388Z,1014.26
2022-08-02T07:09:19.373Z,1014.23
2022-08-02T07:10:01.902Z,1014.26
2022-08-02T07:11:00.243Z,1014.24
2022-08-02T07:12:00.488Z,1014.21
2022-08-02T07:13:00.732Z,1014.24
2022-08-02T07:14:00.987Z,1014.26
2022-08-02T07:15:01.239Z,1014.26
2022-08-02T07:16:01.462Z,1014.18
2022-08-02T07:17:01.704Z,1014.23
2022-08-02T07:18:01.955Z,1014.25
2022-08-02T07:19:02.197Z,1014.25
2022-08-02T07:20:02.425Z,1014.23
2022-08-02T07:21:02.678Z,1014.25
2022-08-02T07:22:02.997Z,1014.25
2022-08-02T07:23:03.239Z,1014.20
2022-08-02T07:24:03.499Z,1014.19
2022-08-02T07:25:03.739Z,1014.18
2022-08-02T07:26:05.790Z,1014.26
2022-08-02T07:27:12.595Z,1014.26
2022-08-02T07:28:05.591Z,1014.24
2022-08-02T07:29:04.781Z,1014.23
2022-08-02T07:30:05.029Z,1014.21
2022-08-02T07:31:05.283Z,1014.18
2022-08-02T07:32:05.561Z,1014.24
2022-08-02T07:33:05.834Z,1014.16
2022-08-02T07:34:06.086Z,1014.21
2022-08-02T07:35:06.717Z,1014.18
2022-08-02T07:36:08.164Z,1014.20
2022-08-02T07:37:06.841Z,1014.15
2022-08-02T07:38:07.094Z,1014.19
2022-08-02T07:39:07.369Z,1014.21
2022-08-02T07:40:12.478Z,1014.18
2022-08-02T07:41:08.916Z,1014.19
2022-08-02T07:42:08.281Z,1014.24
2022-08-02T07:43:08.466Z,1014.18
2022-08-02T07:44:08.706Z,1014.21
2022-08-02T07:45:08.945Z,1014.22
2022-08-02T07:46:09.196Z,1014.22
2022-08-02T07:47:10.387Z,1014.22
2022-08-02T07:48:09.719Z,1014.21
2022-08-02T07:49:10.009Z,1014.17
2022-08-02T07:50:10.268Z,1014.17
2022-08-02T07:51:13.015Z,1014.20
2022-08-02T07:52:12.174Z,1014.21
2022-08-02T07:53:11.191Z,1014.21
2022-08-02T07:54:11.443Z,1014.19
2022-08-02T07:55:12.760Z,1014.19
2022-08-02T07:56:12.059Z,1014.17
2022-08-02T07:57:12.303Z,1014.18
2022-08-02T07:58:13.621Z,1014.18
2022-08-02T07:59:12.843Z,1014.17
2022-08-02T08:00:13.116Z,1014.15
2022-08-02T08:01:13.416Z,1014.09
2022-08-02T08:02:13.960Z,1014.14
2022-08-02T08:03:14.021Z,1014.11
2022-08-02T08:04:14.271Z,1014.13
2022-08-02T08:05:14.515Z,1014.13
2022-08-02T08:06:14.768Z,1014.10
2022-08-02T08:07:15.008Z,1014.18
2022-08-02T08:08:17.686Z,1014.13
2022-08-02T08:09:15.530Z,1014.11
2022-08-02T08:10:15.840Z,1014.16
2022-08-02T08:11:16.099Z,1014.13
2022-08-02T08:12:16.629Z,1014.07
2022-08-02T08:13:16.649Z,1014.12
2022-08-02T08:14:17.166Z,1014.14
2022-08-02T08:15:17.130Z,1014.12
2022-08-02T08:16:17.370Z,1014.09
2022-08-02T08:17:17.612Z,1014.09
2022-08-02T08:18:17.859Z,1014.04
2022-08-02T08:19:18.095Z,1014.02
2022-08-02T08:20:18.340Z,1013.97
2022-08-02T08:21:18.565Z,1014.04
2022-08-02T08:22:18.837Z,1014.09
2022-08-02T08:23:19.087Z,1014.04
2022-08-02T08:24:19.324Z,1014.06
2022-08-02T08:25:19.564Z,1014.01
2022-08-02T08:26:19.811Z,1014.07
2022-08-02T08:27:20.038Z,1014.11
2022-08-02T08:28:20.305Z,1014.04
2022-08-02T08:29:20.545Z,1014.07
2022-08-02T08:30:20.841Z,1014.09
2022-08-02T08:31:21.010Z,1014.05
2022-08-02T08:32:21.671Z,1014.04
2022-08-02T08:33:21.589Z,1014.09
2022-08-02T08:34:21.830Z,1014.06
2022-08-02T08:35:22.070Z,1014.05
2022-08-02T08:36:22.326Z,1014.06
2022-08-02T08:37:22.583Z,1014.03
2022-08-02T08:38:22.841Z,1013.97
2022-08-02T08:39:23.131Z,1013.97
2022-08-02T08:40:23.381Z,1013.99
2022-08-02T08:41:23.648Z,1013.96
2022-08-02T08:42:23.912Z,1014.02
2022-08-02T08:43:24.271Z,1014.03
2022-08-02T08:44:24.474Z,1014.01
2022-08-02T08:45:24.728Z,1013.96
2022-08-02T08:46:24.963Z,1013.90
2022-08-02T08:47:25.207Z,1013.95
2022-08-02T08:48:34.626Z,1013.95
2022-08-02T08:49:25.880Z,1013.86
2022-08-02T08:50:26.172Z,1013.88
2022-08-02T08:51:26.261Z,1013.92
2022-08-02T08:52:26.504Z,1013.93
2022-08-02T08:53:36.327Z,1013.90
2022-08-02T08:54:27.998Z,1013.87
2022-08-02T08:55:27.289Z,1013.83
2022-08-02T08:56:27.535Z,1013.88
2022-08-02T08:57:27.818Z,1013.88
2022-08-02T08:58:28.076Z,1013.87
2022-08-02T08:59:28.338Z,1013.92
2022-08-02T09:00:28.588Z,1013.97
2022-08-02T09:01:28.914Z,1013.95
2022-08-02T09:02:30.294Z,1013.97
2022-08-02T09:03:29.367Z,1013.99
2022-08-02T09:04:29.680Z,1013.96
2022-08-02T09:05:29.940Z,1013.93
2022-08-02T09:06:30.200Z,1013.95
2022-08-02T09:07:30.470Z,1014.00
2022-08-02T09:08:30.743Z,1013.99
2022-08-02T09:09:31.012Z,1014.01
2022-08-02T09:10:31.272Z,1014.04
2022-08-02T09:11:31.521Z,1013.99
2022-08-02T09:12:31.781Z,1013.97
2022-08-02T09:13:45.240Z,1014.01
2022-08-02T09:14:33.382Z,1013.99
2022-08-02T09:15:32.686Z,1013.97
2022-08-02T09:16:33.020Z,1014.02
2022-08-02T09:17:33.174Z,1013.99
2022-08-02T09:18:33.475Z,1014.04
2022-08-02T09:19:33.719Z,1014.05
2022-08-02T09:20:33.997Z,1013.97
2022-08-02T09:21:34.249Z,1013.99
2022-08-02T09:22:34.487Z,1013.99
2022-08-02T09:23:34.769Z,1014.00
2022-08-02T09:24:35.042Z,1013.99
2022-08-02T09:25:35.289Z,1014.00
2022-08-02T09:26:35.548Z,1014.01
2022-08-02T09:27:35.829Z,1014.00
2022-08-02T09:28:36.110Z,1013.98
2022-08-02T09:29:48.487Z,1013.91
2022-08-02T09:30:37.693Z,1013.91
2022-08-02T09:31:37.025Z,1013.89
2022-08-02T09:32:37.302Z,1013.91
2022-08-02T09:33:38.016Z,1013.86
2022-08-02T09:34:37.823Z,1013.92
2022-08-02T09:36:05.376Z,1013.89
2022-08-02T09:36:39.412Z,1013.93
2022-08-02T09:37:38.688Z,1013.90
2022-08-02T09:38:38.964Z,1013.90
2022-08-02T09:39:39.217Z,1013.89
2022-08-02T09:40:40.546Z,1013.90
2022-08-02T09:41:39.875Z,1013.89
2022-08-02T09:42:40.126Z,1013.88
2022-08-02T09:43:51.959Z,1013.88
2022-08-02T09:44:41.617Z,1013.83
2022-08-02T09:45:40.981Z,1013.80
2022-08-02T09:46:41.251Z,1013.83
2022-08-02T09:47:41.509Z,1013.85
2022-08-02T09:48:41.825Z,1013.82
2022-08-02T09:49:42.112Z,1013.83
2022-08-02T09:50:43.420Z,1013.80
2022-08-02T09:51:42.713Z,1013.80
2022-08-02T09:52:44.070Z,1013.80
2022-08-02T09:53:43.276Z,1013.74
2022-08-02T09:54:43.542Z,1013.74
2022-08-02T09:55:43.804Z,1013.70
2022-08-02T09:56:44.083Z,1013.68
2022-08-02T09:57:44.342Z,1013.66
2022-08-02T09:58:45.713Z,1013.66
2022-08-02T09:59:45.046Z,1013.70
2022-08-02T10:00:52.940Z,1013.71
2022-08-02T10:01:51.684Z,1013.68
2022-08-02T10:02:46.937Z,1013.62
2022-08-02T10:03:46.295Z,1013.65
2022-08-02T10:04:53.254Z,1013.59
2022-08-02T10:05:55.430Z,1013.63
2022-08-02T10:06:48.057Z,1013.62
2022-08-02T10:07:47.329Z,1013.64
2022-08-02T10:08:47.617Z,1013.60
2022-08-02T10:09:47.891Z,1013.54
2022-08-02T10:10:48.162Z,1013.57
2022-08-02T10:11:48.411Z,1013.61
2022-08-02T10:12:49.462Z,1013.59
2022-08-02T10:13:48.921Z,1013.61
2022-08-02T10:14:49.172Z,1013.60
2022-08-02T10:15:50.372Z,1013.61
2022-08-02T10:16:49.694Z,1013.58
2022-08-02T10:17:49.941Z,1013.53
2022-08-02T10:18:50.214Z,1013.53
2022-08-02T10:20:01.977Z,1013.57
2022-08-02T10:20:51.824Z,1013.53
2022-08-02T10:21:51.173Z,1013.53
2022-08-02T10:22:51.427Z,1013.57
2022-08-02T10:23:51.686Z,1013.54
2022-08-02T10:24:51.946Z,1013.60
2022-08-02T10:25:52.964Z,1013.52
2022-08-02T10:26:52.467Z,1013.49
2022-08-02T10:28:05.218Z,1013.51
2022-08-02T10:28:53.957Z,1013.48
2022-08-02T10:29:55.109Z,1013.50
2022-08-02T10:30:53.541Z,1013.46
2022-08-02T10:31:53.790Z,1013.47
2022-08-02T10:32:54.058Z,1013.50
2022-08-02T10:33:54.324Z,1013.49
2022-08-02T10:34:54.593Z,1013.49
2022-08-02T10:36:07.134Z,1013.50
2022-08-02T10:36:56.091Z,1013.49
2022-08-02T10:37:55.419Z,1013.48
2022-08-02T10:38:55.682Z,1013.55
2022-08-02T10:39:55.958Z,1013.60
2022-08-02T10:40:56.224Z,1013.53
2022-08-02T10:41:56.474Z,1013.57
2022-08-02T10:42:56.724Z,1013.54
2022-08-02T10:43:57.038Z,1013.54
2022-08-02T10:44:57.295Z,1013.59
2022-08-02T10:45:57.548Z,1013.58
2022-08-02T10:46:57.816Z,1013.59
2022-08-02T10:47:58.078Z,1013.54
2022-08-02T10:48:58.400Z,1013.53
2022-08-02T10:49:58.656Z,1013.50
2022-08-02T10:50:58.962Z,1013.51
2022-08-02T10:51:59.217Z,1013.49
2022-08-02T10:52:59.453Z,1013.52
2022-08-02T10:53:59.769Z,1013.52
2022-08-02T10:55:00.031Z,1013.48
2022-08-02T10:56:00.301Z,1013.54
2022-08-02T10:57:01.310Z,1013.49
2022-08-02T10:58:00.822Z,1013.54
2022-08-02T10:59:01.122Z,1013.53
2022-08-02T11:00:01.370Z,1013.52
2022-08-02T11:01:01.767Z,1013.50
2022-08-02T11:02:01.900Z,1013.47
2022-08-02T11:03:02.177Z,1013.52
2022-08-02T11:04:05.008Z,1013.41
2022-08-02T11:05:02.723Z,1013.42
2022-08-02T11:06:02.989Z,1013.35
2022-08-02T11:07:03.248Z,1013.28
2022-08-02T11:08:03.508Z,1013.24
2022-08-02T11:09:04.281Z,1013.23
2022-08-02T11:10:04.029Z,1013.24
2022-08-02T11:11:04.293Z,1013.18
2022-08-02T11:12:04.549Z,1013.26
2022-08-02T11:13:04.835Z,1013.18
2022-08-02T11:14:05.116Z,1013.14
2022-08-02T11:15:07.786Z,1013.09
2022-08-02T11:16:11.217Z,1013.11
2022-08-02T11:17:06.874Z,1013.08
2022-08-02T11:18:06.179Z,1013.11
2022-08-02T11:19:06.820Z,1013.10
2022-08-02T11:20:06.660Z,1013.00
2022-08-02T11:21:06.950Z,1013.05
2022-08-02T11:22:07.232Z,1013.05
2022-08-02T11:23:07.482Z,1013.03
2022-08-02T11:24:07.847Z,1013.02
2022-08-02T11:25:08.120Z,1013.06
2022-08-02T11:26:10.974Z,1013.02
2022-08-02T11:27:08.615Z,1013.03
2022-08-02T11:28:08.893Z,1013.02
2022-08-02T11:29:09.145Z,1013.01
2022-08-02T11:30:10.495Z,1013.03
2022-08-02T11:31:09.846Z,1013.02
2022-08-02T11:32:10.479Z,1013.01
2022-08-02T11:33:10.440Z,1012.96
2022-08-02T11:34:10.738Z,1012.93
2022-08-02T11:35:11.942Z,1012.92
2022-08-02T11:36:11.253Z,1012.93
2022-08-02T11:37:11.510Z,1012.90
2022-08-02T11:38:11.806Z,1012.96
2022-08-02T11:39:12.076Z,1013.00
2022-08-02T11:40:19.322Z,1012.99
2022-08-02T11:41:13.672Z,1013.01
2022-08-02T11:42:14.252Z,1013.05
2022-08-02T11:43:13.205Z,1013.07
2022-08-02T11:44:13.496Z,1012.98
2022-08-02T11:45:21.084Z,1013.00
2022-08-02T11:46:15.068Z,1012.98
2022-08-02T11:47:14.267Z,1013.01
2022-08-02T11:48:14.530Z,1013.02
2022-08-02T11:49:14.871Z,1013.01
2022-08-02T11:50:15.066Z,1013.01
2022-08-02T11:51:15.342Z,1013.09
2022-08-02T11:52:15.843Z,1013.04
2022-08-02T11:53:15.840Z,1013.03
2022-08-02T11:54:16.272Z,1013.02
2022-08-02T11:55:16.382Z,1013.03
2022-08-02T11:56:21.836Z,1013.04
2022-08-02T11:57:20.339Z,1012.94
2022-08-02T11:58:17.270Z,1012.99
2022-08-02T11:59:17.598Z,1013.01
2022-08-02T12:00:17.883Z,1012.96
2022-08-02T12:01:18.127Z,1013.00
2022-08-02T12:02:18.732Z,1012.97
2022-08-02T12:03:19.869Z,1012.97
2022-08-02T12:04:19.179Z,1012.98
2022-08-02T12:05:19.213Z,1012.96
2022-08-02T12:06:19.572Z,1012.95
2022-08-02T12:07:19.829Z,1013.00
2022-08-02T12:08:22.095Z,1012.95
2022-08-02T12:09:20.424Z,1012.96
2022-08-02T12:10:20.695Z,1012.94